createdAt,value
2023-03-14T00:00:24.176Z,62.31
2023-03-14T00:02:56.861Z,62.43
2023-03-14T00:05:10.025Z,62.27
2023-03-14T00:07:25.349Z,62.07
2023-03-14T00:09:37.966Z,62.08
2023-03-14T00:11:50.501Z,61.99
2023-03-14T00:14:03.952Z,61.89
2023-03-14T00:16:16.923Z,61.83
2023-03-14T00:18:29.565Z,61.93
2023-03-14T00:20:42.111Z,61.87
2023-03-14T00:22:54.708Z,61.70
2023-03-14T00:25:09.222Z,61.41
2023-03-14T00:27:21.759Z,61.21
2023-03-14T00:29:34.330Z,61.08
2023-03-14T00:31:46.940Z,60.67
2023-03-14T00:33:59.516Z,60.39
2023-03-14T00:36:16.837Z,60.07
2023-03-14T00:38:30.637Z,59.91
2023-03-14T00:40:43.144Z,59.42
2023-03-14T00:42:55.809Z,59.14
2023-03-14T00:45:09.868Z,59.00
2023-03-14T00:47:22.425Z,58.57
2023-03-14T00:49:35.220Z,58.17
2023-03-14T00:51:47.756Z,58.36
2023-03-14T00:54:01.025Z,57.42
2023-03-14T00:56:13.986Z,57.01
2023-03-14T00:58:26.508Z,57.16
2023-03-14T01:00:40.166Z,57.49
2023-03-14T01:02:52.773Z,59.04
2023-03-14T01:05:05.631Z,59.73
2023-03-14T01:07:18.242Z,60.34
2023-03-14T01:09:30.845Z,60.95
2023-03-14T01:11:47.295Z,61.63
2023-03-14T01:14:00.164Z,62.12
2023-03-14T01:16:14.466Z,62.83
2023-03-14T01:18:27.092Z,63.22
2023-03-14T01:20:39.685Z,63.62
2023-03-14T01:22:52.341Z,64.01
2023-03-14T01:25:05.718Z,64.11
2023-03-14T01:27:18.300Z,64.55
2023-03-14T01:29:31.375Z,64.93
2023-03-14T01:31:43.962Z,65.57
2023-03-14T01:33:56.635Z,66.26
2023-03-14T01:36:10.414Z,67.14
2023-03-14T01:38:23.073Z,67.85
2023-03-14T01:40:43.083Z,68.73
2023-03-14T01:42:58.351Z,69.14
2023-03-14T01:45:48.736Z,69.80
2023-03-14T01:48:01.338Z,70.34
2023-03-14T01:50:13.881Z,71.36
2023-03-14T01:52:36.089Z,72.06
2023-03-14T01:54:56.604Z,73.49
2023-03-14T01:57:16.881Z,75.17
2023-03-14T01:59:32.623Z,76.97
2023-03-14T02:01:47.499Z,77.86
2023-03-14T02:04:03.583Z,78.70
2023-03-14T02:06:20.431Z,79.10
2023-03-14T02:08:34.366Z,79.19
2023-03-14T02:10:49.782Z,79.12
2023-03-14T02:13:04.587Z,79.40
2023-03-14T02:15:17.344Z,79.49
2023-03-14T02:17:30.089Z,79.66
2023-03-14T02:20:10.077Z,79.81
2023-03-14T02:22:22.987Z,79.51
2023-03-14T02:24:45.905Z,79.71
2023-03-14T02:27:07.745Z,79.90
2023-03-14T02:29:20.426Z,79.79
2023-03-14T02:31:34.279Z,79.74
2023-03-14T02:33:46.890Z,79.56
2023-03-14T02:36:02.484Z,79.31
2023-03-14T02:38:36.840Z,79.01
2023-03-14T02:40:49.557Z,78.92
2023-03-14T02:43:02.174Z,78.61
2023-03-14T02:45:14.825Z,78.17
2023-03-14T02:47:30.859Z,77.71
2023-03-14T02:49:43.705Z,77.03
2023-03-14T02:51:56.335Z,76.56
2023-03-14T02:54:09.049Z,76.20
2023-03-14T02:56:21.827Z,75.88
2023-03-14T02:58:34.675Z,74.80
2023-03-14T03:00:47.726Z,74.18
2023-03-14T03:03:00.681Z,73.86
2023-03-14T03:05:13.309Z,72.84
2023-03-14T03:07:26.129Z,73.14
2023-03-14T03:09:38.716Z,72.35
2023-03-14T03:11:51.445Z,71.55
2023-03-14T03:14:04.064Z,71.06
2023-03-14T03:16:16.917Z,71.10
2023-03-14T03:18:29.558Z,70.71
2023-03-14T03:20:42.207Z,70.56
2023-03-14T03:22:55.010Z,70.17
2023-03-14T03:25:09.107Z,70.04
2023-03-14T03:27:21.717Z,69.80
2023-03-14T03:29:34.341Z,69.66
2023-03-14T03:31:46.946Z,69.53
2023-03-14T03:33:59.497Z,69.66
2023-03-14T03:36:12.939Z,69.94
2023-03-14T03:38:25.566Z,69.75
2023-03-14T03:40:38.185Z,69.62
2023-03-14T03:42:50.876Z,69.76
2023-03-14T03:45:04.454Z,69.98
2023-03-14T03:47:16.988Z,69.69
2023-03-14T03:49:31.320Z,69.56
2023-03-14T03:51:43.851Z,69.86
2023-03-14T03:53:57.346Z,69.60
2023-03-14T03:56:10.362Z,69.80
2023-03-14T03:58:22.903Z,69.59
2023-03-14T04:00:35.589Z,69.74
2023-03-14T04:02:48.237Z,69.54
2023-03-14T04:05:01.456Z,69.32
2023-03-14T04:07:15.006Z,69.27
2023-03-14T04:09:27.537Z,69.34
2023-03-14T04:11:40.211Z,69.31
2023-03-14T04:13:53.050Z,69.01
2023-03-14T04:16:15.157Z,69.00
2023-03-14T04:18:28.204Z,68.94
2023-03-14T04:20:40.782Z,68.96
2023-03-14T04:22:53.353Z,69.03
2023-03-14T04:25:07.477Z,68.92
2023-03-14T04:27:20.195Z,69.17
2023-03-14T04:29:32.809Z,69.12
2023-03-14T04:31:45.463Z,69.36
2023-03-14T04:33:58.178Z,69.18
2023-03-14T04:36:10.844Z,69.08
2023-03-14T04:38:23.428Z,69.14
2023-03-14T04:40:38.550Z,69.32
2023-03-14T04:42:51.173Z,69.30
2023-03-14T04:45:04.249Z,69.30
2023-03-14T04:47:16.825Z,69.11
2023-03-14T04:49:29.456Z,69.07
2023-03-14T04:51:42.095Z,69.05
2023-03-14T04:53:55.537Z,68.87
2023-03-14T04:56:08.571Z,68.96
2023-03-14T04:58:22.108Z,68.92
2023-03-14T05:00:34.908Z,68.81
2023-03-14T05:02:47.544Z,68.72
2023-03-14T05:05:00.232Z,68.54
2023-03-14T05:07:13.968Z,68.47
2023-03-14T05:09:27.679Z,68.46
2023-03-14T05:11:40.274Z,68.49
2023-03-14T05:13:52.844Z,68.59
2023-03-14T05:16:08.397Z,68.73
2023-03-14T05:18:21.012Z,69.05
2023-03-14T05:20:33.604Z,69.30
2023-03-14T05:22:46.267Z,69.64
2023-03-14T05:25:00.037Z,69.89
2023-03-14T05:27:12.796Z,70.29
2023-03-14T05:29:25.826Z,70.28
2023-03-14T05:31:38.544Z,70.74
2023-03-14T05:33:51.318Z,70.94
2023-03-14T05:36:04.253Z,71.21
2023-03-14T05:38:16.886Z,71.47
2023-03-14T05:40:29.562Z,71.66
2023-03-14T05:42:42.175Z,71.67
2023-03-14T05:44:54.927Z,71.78
2023-03-14T05:47:07.617Z,71.79
2023-03-14T05:49:20.264Z,71.80
2023-03-14T05:51:32.829Z,71.81
2023-03-14T05:53:45.487Z,71.62
2023-03-14T05:55:58.432Z,71.58
2023-03-14T05:58:11.111Z,71.58
2023-03-14T06:00:24.241Z,71.84
2023-03-14T06:02:36.858Z,71.82
2023-03-14T06:04:49.523Z,72.20
2023-03-14T06:07:02.119Z,72.00
2023-03-14T06:09:14.694Z,72.18
2023-03-14T06:11:27.260Z,72.52
2023-03-14T06:13:39.830Z,72.32
2023-03-14T06:15:52.426Z,72.72
2023-03-14T06:18:05.036Z,72.68
2023-03-14T06:20:17.801Z,72.63
2023-03-14T06:22:30.416Z,72.59
2023-03-14T06:24:43.192Z,72.53
2023-03-14T06:26:55.772Z,72.52
2023-03-14T06:29:08.495Z,72.43
2023-03-14T06:31:21.147Z,72.63
2023-03-14T06:33:33.781Z,72.52
2023-03-14T06:35:46.355Z,72.28
2023-03-14T06:37:58.894Z,72.13
2023-03-14T06:40:17.730Z,71.96
2023-03-14T06:42:30.328Z,71.72
2023-03-14T06:44:42.896Z,71.62
2023-03-14T06:46:55.458Z,71.54
2023-03-14T06:49:08.128Z,71.62
2023-03-14T06:51:20.781Z,71.69
2023-03-14T06:53:33.574Z,71.54
2023-03-14T06:55:46.688Z,71.63
2023-03-14T06:57:59.363Z,71.57
2023-03-14T07:00:13.741Z,71.96
2023-03-14T07:02:39.747Z,72.21
2023-03-14T07:04:54.767Z,71.95
2023-03-14T07:07:07.735Z,71.61
2023-03-14T07:09:20.541Z,71.14
2023-03-14T07:11:33.062Z,71.10
2023-03-14T07:13:45.648Z,70.86
2023-03-14T07:15:58.223Z,70.78
2023-03-14T07:18:10.787Z,70.87
2023-03-14T07:20:24.317Z,70.66
2023-03-14T07:22:36.870Z,70.50
2023-03-14T07:24:49.395Z,70.44
2023-03-14T07:27:01.950Z,70.37
2023-03-14T07:29:14.439Z,70.08
2023-03-14T07:31:27.048Z,69.99
2023-03-14T07:33:39.721Z,70.05
2023-03-14T07:35:52.358Z,69.99
2023-03-14T07:38:05.374Z,69.70
2023-03-14T07:40:18.101Z,69.53
2023-03-14T07:42:30.990Z,69.36
2023-03-14T07:44:43.557Z,68.85
2023-03-14T07:46:56.462Z,68.61
2023-03-14T07:49:09.049Z,68.45
2023-03-14T07:51:21.578Z,68.26
2023-03-14T07:53:34.204Z,68.16
2023-03-14T07:55:46.969Z,68.13
2023-03-14T07:57:59.600Z,68.22
2023-03-14T08:00:14.787Z,68.28
2023-03-14T08:02:28.382Z,68.31
2023-03-14T08:04:41.194Z,68.29
2023-03-14T08:06:55.291Z,68.27
2023-03-14T08:09:07.918Z,68.46
2023-03-14T08:11:20.477Z,68.72
2023-03-14T08:13:33.473Z,68.95
2023-03-14T08:15:49.892Z,68.96
2023-03-14T08:18:02.473Z,68.98
2023-03-14T08:20:15.350Z,68.63
2023-03-14T08:22:27.883Z,68.47
2023-03-14T08:24:40.462Z,68.32
2023-03-14T08:26:52.941Z,68.18
2023-03-14T08:29:05.697Z,68.00
2023-03-14T08:31:18.588Z,68.11
2023-03-14T08:33:31.481Z,68.20
2023-03-14T08:35:44.152Z,68.28
2023-03-14T08:37:56.779Z,68.19
2023-03-14T08:40:11.308Z,68.30
2023-03-14T08:42:23.933Z,68.37
2023-03-14T08:44:36.473Z,68.40
2023-03-14T08:46:49.188Z,68.39
2023-03-14T08:49:01.898Z,68.68
2023-03-14T08:51:15.576Z,68.97
2023-03-14T08:53:28.094Z,68.97
2023-03-14T08:55:40.630Z,68.96
2023-03-14T08:57:53.276Z,68.87
2023-03-14T09:00:11.410Z,68.83
2023-03-14T09:02:25.208Z,68.54
2023-03-14T09:04:37.882Z,68.44
2023-03-14T09:06:50.455Z,68.34
2023-03-14T09:09:03.537Z,68.38
2023-03-14T09:11:16.409Z,68.13
2023-03-14T09:13:28.967Z,68.20
2023-03-14T09:15:43.280Z,67.95
2023-03-14T09:17:55.985Z,67.85
2023-03-14T09:20:09.899Z,68.09
2023-03-14T09:22:22.615Z,67.85
2023-03-14T09:24:35.158Z,67.92
2023-03-14T09:26:47.900Z,68.27
2023-03-14T09:29:00.452Z,68.02
2023-03-14T09:31:14.538Z,67.96
2023-03-14T09:33:27.407Z,68.21
2023-03-14T09:35:39.966Z,68.19
2023-03-14T09:37:52.645Z,67.87
2023-03-14T09:40:11.308Z,67.99
2023-03-14T09:42:27.521Z,68.21
2023-03-14T09:44:47.376Z,68.29
2023-03-14T09:47:05.199Z,68.70
2023-03-14T09:49:23.008Z,68.69
2023-03-14T09:51:35.606Z,68.70
2023-03-14T09:53:49.901Z,68.79
2023-03-14T09:56:02.545Z,68.83
2023-03-14T09:58:21.796Z,69.01
2023-03-14T10:00:34.387Z,69.01
2023-03-14T10:02:56.610Z,68.73
2023-03-14T10:05:16.834Z,68.88
2023-03-14T10:07:32.964Z,68.76
2023-03-14T10:09:48.956Z,68.54
2023-03-14T10:12:02.402Z,68.55
2023-03-14T10:14:33.684Z,68.43
2023-03-14T10:16:47.073Z,68.57
2023-03-14T10:19:08.643Z,68.56
2023-03-14T10:21:29.695Z,68.66
2023-03-14T10:23:42.255Z,68.57
2023-03-14T10:26:13.047Z,68.63
2023-03-14T10:28:31.857Z,68.40
2023-03-14T10:30:46.575Z,68.64
2023-03-14T10:33:09.317Z,68.23
2023-03-14T10:35:23.884Z,68.44
2023-03-14T10:37:36.925Z,68.48
2023-03-14T10:39:56.334Z,67.98
2023-03-14T10:42:25.192Z,67.75
2023-03-14T10:44:39.699Z,67.52
2023-03-14T10:47:01.761Z,67.11
2023-03-14T10:49:29.601Z,66.52
2023-03-14T10:51:42.124Z,66.49
2023-03-14T10:54:04.370Z,66.63
2023-03-14T10:56:22.569Z,66.18
2023-03-14T10:58:41.135Z,66.04
2023-03-14T11:01:13.310Z,65.72
2023-03-14T11:03:29.230Z,65.63
2023-03-14T11:06:05.163Z,65.30
2023-03-14T11:08:56.123Z,65.16
2023-03-14T11:11:17.510Z,65.01
2023-03-14T11:13:29.969Z,64.99
2023-03-14T11:16:07.480Z,64.58
2023-03-14T11:18:41.032Z,64.47
2023-03-14T11:21:29.751Z,64.41
2023-03-14T11:23:57.544Z,63.42
2023-03-14T11:26:41.217Z,62.19
2023-03-14T11:29:12.751Z,61.40
2023-03-14T11:31:30.783Z,61.02
2023-03-14T11:34:06.338Z,60.65
2023-03-14T11:36:26.666Z,59.62
2023-03-14T11:38:56.142Z,58.76
2023-03-14T11:41:17.601Z,59.12
2023-03-14T11:43:35.996Z,58.87
2023-03-14T11:45:50.984Z,58.76
2023-03-14T11:48:22.000Z,58.12
2023-03-14T11:50:36.074Z,58.29
2023-03-14T11:52:55.940Z,58.15
2023-03-14T11:55:18.967Z,58.31
2023-03-14T11:57:31.610Z,58.31
2023-03-14T12:00:15.123Z,58.39
2023-03-14T12:02:30.745Z,58.55
2023-03-14T12:04:49.194Z,58.52
2023-03-14T12:07:15.944Z,58.59
2023-03-14T12:09:30.587Z,58.41
2023-03-14T12:11:53.689Z,58.09
2023-03-14T12:14:21.333Z,58.48
2023-03-14T12:16:40.781Z,58.54
2023-03-14T12:18:54.814Z,58.78
2023-03-14T12:21:10.759Z,58.26
2023-03-14T12:23:25.565Z,58.13
2023-03-14T12:25:38.311Z,58.32
2023-03-14T12:27:56.950Z,58.07
2023-03-14T12:30:40.646Z,57.64
2023-03-14T12:33:11.468Z,57.70
2023-03-14T12:35:40.936Z,57.78
2023-03-14T12:37:56.836Z,57.93
2023-03-14T12:40:10.462Z,58.47
2023-03-14T12:42:52.718Z,58.95
2023-03-14T12:45:25.845Z,58.94
2023-03-14T12:47:38.399Z,59.36
2023-03-14T12:49:54.219Z,59.71
2023-03-14T12:52:15.601Z,60.00
2023-03-14T12:54:46.936Z,60.17
2023-03-14T12:57:16.725Z,60.33
2023-03-14T12:59:33.605Z,60.77
2023-03-14T13:01:54.466Z,61.03
2023-03-14T13:04:12.639Z,61.04
2023-03-14T13:06:48.848Z,61.32
2023-03-14T13:09:27.127Z,61.77
2023-03-14T13:11:42.119Z,62.26
2023-03-14T13:13:59.594Z,62.51
2023-03-14T13:16:17.444Z,62.78
2023-03-14T13:18:52.550Z,62.73
2023-03-14T13:21:20.960Z,62.85
2023-03-14T13:23:37.671Z,62.99
2023-03-14T13:25:50.420Z,63.23
2023-03-14T13:28:04.059Z,63.34
2023-03-14T13:30:24.649Z,63.20
2023-03-14T13:32:43.408Z,63.24
2023-03-14T13:34:59.517Z,63.24
2023-03-14T13:37:23.001Z,63.25
2023-03-14T13:39:35.672Z,63.27
2023-03-14T13:41:49.412Z,63.08
2023-03-14T13:44:07.802Z,63.02
2023-03-14T13:46:24.303Z,62.85
2023-03-14T13:48:44.921Z,62.76
2023-03-14T13:51:07.139Z,62.48
2023-03-14T13:53:20.777Z,62.42
2023-03-14T13:55:34.430Z,62.49
2023-03-14T13:57:56.721Z,62.52
2023-03-14T14:00:24.816Z,62.51
2023-03-14T14:02:39.022Z,62.50
2023-03-14T14:04:52.335Z,62.34
2023-03-14T14:07:11.069Z,62.57
2023-03-14T14:09:32.631Z,62.19
2023-03-14T14:12:15.385Z,62.47
2023-03-14T14:14:41.520Z,62.62
2023-03-14T14:16:54.782Z,62.69
2023-03-14T14:19:08.918Z,63.24
2023-03-14T14:21:22.152Z,63.86
2023-03-14T14:23:37.002Z,64.92
2023-03-14T14:25:50.212Z,65.20
2023-03-14T14:28:35.621Z,65.79
2023-03-14T14:31:06.039Z,66.04
2023-03-14T14:33:21.588Z,65.92
2023-03-14T14:35:36.318Z,66.27
2023-03-14T14:37:49.422Z,66.49
2023-03-14T14:40:17.052Z,67.07
2023-03-14T14:42:32.047Z,67.26
2023-03-14T14:44:46.416Z,67.86
2023-03-14T14:47:00.250Z,67.81
2023-03-14T14:49:20.447Z,67.89
2023-03-14T14:51:39.978Z,68.25
2023-03-14T14:54:04.045Z,68.42
2023-03-14T14:56:20.247Z,68.69
2023-03-14T14:58:40.698Z,68.51
2023-03-14T15:01:16.182Z,68.73
2023-03-14T15:03:30.891Z,68.86
2023-03-14T15:05:43.400Z,68.86
2023-03-14T15:07:55.992Z,68.89
2023-03-14T15:10:13.746Z,68.62
2023-03-14T15:12:26.341Z,68.21
2023-03-14T15:14:39.114Z,68.04
2023-03-14T15:16:51.743Z,67.75
2023-03-14T15:19:23.708Z,67.68
2023-03-14T15:21:36.860Z,67.81
2023-03-14T15:23:49.676Z,67.37
2023-03-14T15:26:03.758Z,66.34
2023-03-14T15:28:23.198Z,65.63
2023-03-14T15:30:35.810Z,64.78
2023-03-14T15:32:48.540Z,64.01
2023-03-14T15:35:01.268Z,63.28
2023-03-14T15:37:16.870Z,63.00
2023-03-14T15:39:29.564Z,62.82
2023-03-14T15:41:42.280Z,62.48
2023-03-14T15:43:55.984Z,62.46
2023-03-14T15:46:10.847Z,62.59
2023-03-14T15:48:23.549Z,62.89
2023-03-14T15:50:36.193Z,63.08
2023-03-14T15:52:49.269Z,63.35
2023-03-14T15:55:01.920Z,63.27
2023-03-14T15:57:14.571Z,63.35
2023-03-14T15:59:27.348Z,63.58
2023-03-14T16:01:40.173Z,63.87
2023-03-14T16:03:53.790Z,63.66
2023-03-14T16:06:07.084Z,64.05
2023-03-14T16:08:19.751Z,64.11
2023-03-14T16:10:33.249Z,64.39
2023-03-14T16:12:46.116Z,64.47
2023-03-14T16:14:58.833Z,64.71
2023-03-14T16:17:13.057Z,64.74
2023-03-14T16:19:27.250Z,64.97
2023-03-14T16:21:39.922Z,64.98
2023-03-14T16:23:52.596Z,65.26
2023-03-14T16:26:08.085Z,65.15
2023-03-14T16:28:20.891Z,65.29
2023-03-14T16:30:33.497Z,65.56
2023-03-14T16:32:48.146Z,65.69
2023-03-14T16:35:01.262Z,65.64
2023-03-14T16:37:14.257Z,65.89
2023-03-14T16:39:29.026Z,65.91
2023-03-14T16:41:42.290Z,65.93
2023-03-14T16:43:56.356Z,65.87
2023-03-14T16:46:14.286Z,66.29
2023-03-14T16:48:28.315Z,66.11
2023-03-14T16:50:41.593Z,65.96
2023-03-14T16:52:55.402Z,66.16
2023-03-14T16:55:08.451Z,66.20
2023-03-14T16:57:21.119Z,66.05
2023-03-14T16:59:33.964Z,66.36
2023-03-14T17:01:46.858Z,66.30
2023-03-14T17:03:59.831Z,66.50
2023-03-14T17:06:19.355Z,66.86
2023-03-14T17:08:35.190Z,66.69
2023-03-14T17:10:47.942Z,66.73
2023-03-14T17:13:01.452Z,66.68
2023-03-14T17:15:14.206Z,66.78
2023-03-14T17:17:26.896Z,67.12
2023-03-14T17:19:39.618Z,67.02
2023-03-14T17:21:57.893Z,67.21
2023-03-14T17:24:11.031Z,67.62
2023-03-14T17:26:23.804Z,68.00
2023-03-14T17:28:39.889Z,67.89
2023-03-14T17:31:02.881Z,68.24
2023-03-14T17:33:16.681Z,68.29
2023-03-14T17:35:29.647Z,68.60
2023-03-14T17:37:42.595Z,69.09
2023-03-14T17:39:55.404Z,69.11
2023-03-14T17:42:08.536Z,69.30
2023-03-14T17:44:22.549Z,69.67
2023-03-14T17:46:38.486Z,69.77
2023-03-14T17:48:51.317Z,70.09
2023-03-14T17:51:07.139Z,70.22
2023-03-14T17:53:19.896Z,70.36
2023-03-14T17:55:32.506Z,70.34
2023-03-14T17:57:45.205Z,70.36
2023-03-14T17:59:58.305Z,70.26
2023-03-14T18:02:11.691Z,70.09
2023-03-14T18:04:24.685Z,70.48
2023-03-14T18:06:37.654Z,70.37
2023-03-14T18:08:51.480Z,70.41
2023-03-14T18:11:06.628Z,70.56
2023-03-14T18:13:19.386Z,70.47
2023-03-14T18:15:34.296Z,70.71
2023-03-14T18:17:47.288Z,70.73
2023-03-14T18:20:00.160Z,70.76
2023-03-14T18:22:13.052Z,70.76
2023-03-14T18:24:27.763Z,70.95
2023-03-14T18:26:42.832Z,70.85
2023-03-14T18:28:55.562Z,70.96
2023-03-14T18:31:11.175Z,71.18
2023-03-14T18:33:23.981Z,71.43
2023-03-14T18:35:39.915Z,71.39
2023-03-14T18:37:52.640Z,71.51
2023-03-14T18:40:08.868Z,71.44
2023-03-14T18:42:21.635Z,71.22
2023-03-14T18:44:34.294Z,71.23
2023-03-14T18:46:48.530Z,71.33
2023-03-14T18:49:04.205Z,71.15
2023-03-14T18:51:17.719Z,71.34
2023-03-14T18:53:33.486Z,71.54
2023-03-14T18:55:49.020Z,71.68
2023-03-14T18:58:01.946Z,71.81
2023-03-14T19:00:15.515Z,71.84
2023-03-14T19:02:31.470Z,71.83
2023-03-14T19:04:44.490Z,71.96
2023-03-14T19:06:57.979Z,71.78
2023-03-14T19:09:15.274Z,71.78
2023-03-14T19:11:28.304Z,71.84
2023-03-14T19:13:42.226Z,72.00
2023-03-14T19:15:54.932Z,72.09
2023-03-14T19:18:10.814Z,72.25
2023-03-14T19:20:24.553Z,72.18
2023-03-14T19:22:37.280Z,72.30
2023-03-14T19:24:49.943Z,72.43
2023-03-14T19:27:02.740Z,72.33
2023-03-14T19:29:16.477Z,72.39
2023-03-14T19:31:29.254Z,72.33
2023-03-14T19:33:42.604Z,72.57
2023-03-14T19:35:55.387Z,72.66
2023-03-14T19:38:08.229Z,72.96
2023-03-14T19:40:21.022Z,73.78
2023-03-14T19:42:33.783Z,74.56
2023-03-14T19:44:46.518Z,75.79
2023-03-14T19:46:59.341Z,78.36
2023-03-14T19:49:12.009Z,81.00
2023-03-14T19:51:24.772Z,82.52
2023-03-14T19:53:37.911Z,83.45
2023-03-14T19:55:51.593Z,86.50
2023-03-14T19:58:05.450Z,88.09
2023-03-14T20:00:19.567Z,89.27
2023-03-14T20:02:32.288Z,90.48
2023-03-14T20:04:46.655Z,92.04
2023-03-14T20:06:59.423Z,91.98
2023-03-14T20:09:12.218Z,92.32
2023-03-14T20:11:25.251Z,92.87
2023-03-14T20:13:44.820Z,92.93
2023-03-14T20:15:57.937Z,92.57
2023-03-14T20:18:10.491Z,92.81
2023-03-14T20:20:23.162Z,94.30
2023-03-14T20:22:38.248Z,95.61
2023-03-14T20:24:52.563Z,95.43
2023-03-14T20:27:05.262Z,94.24
2023-03-14T20:29:17.842Z,94.13
2023-03-14T20:31:30.553Z,94.35
2023-03-14T20:33:45.370Z,93.67
2023-03-14T20:35:59.744Z,94.80
2023-03-14T20:38:12.521Z,95.04
2023-03-14T20:40:28.558Z,96.34
2023-03-14T20:42:41.145Z,97.31
2023-03-14T20:44:54.528Z,96.85
2023-03-14T20:47:07.182Z,96.67
2023-03-14T20:49:19.798Z,97.18
2023-03-14T20:51:33.196Z,96.81
2023-03-14T20:53:45.809Z,98.20
2023-03-14T20:55:58.915Z,97.44
2023-03-14T20:58:15.152Z,97.78
2023-03-14T21:00:27.744Z,98.08
2023-03-14T21:02:41.912Z,98.28
2023-03-14T21:04:57.404Z,98.49
2023-03-14T21:07:12.240Z,98.76
2023-03-14T21:09:25.648Z,98.42
2023-03-14T21:11:41.161Z,98.84
2023-03-14T21:13:53.728Z,99.14
2023-03-14T21:16:06.925Z,99.27
2023-03-14T21:18:23.064Z,99.13
2023-03-14T21:20:42.256Z,98.91
2023-03-14T21:22:54.883Z,99.78
2023-03-14T21:25:07.769Z,99.75
2023-03-14T21:27:21.431Z,99.68
2023-03-14T21:29:37.089Z,99.37
2023-03-14T21:31:50.700Z,99.73
2023-03-14T21:34:03.233Z,99.76
2023-03-14T21:36:16.644Z,99.94
2023-03-14T21:38:29.225Z,99.85
2023-03-14T21:40:41.822Z,99.71
2023-03-14T21:42:55.439Z,99.90
2023-03-14T21:45:08.762Z,99.76
2023-03-14T21:47:23.435Z,99.72
2023-03-14T21:49:38.613Z,99.36
2023-03-14T21:51:52.339Z,99.34
2023-03-14T21:54:10.080Z,99.12
2023-03-14T21:56:26.923Z,98.71
2023-03-14T21:58:40.818Z,98.88
2023-03-14T22:00:54.443Z,98.67
2023-03-14T22:03:13.203Z,98.69
2023-03-14T22:05:26.165Z,98.40
2023-03-14T22:07:41.208Z,98.52
2023-03-14T22:09:54.861Z,98.52
2023-03-14T22:12:07.931Z,98.39
2023-03-14T22:14:20.806Z,98.19
2023-03-14T22:16:33.530Z,97.94
2023-03-14T22:18:46.194Z,97.87
2023-03-14T22:20:58.842Z,97.99
2023-03-14T22:23:12.110Z,97.90
2023-03-14T22:25:24.659Z,98.12
2023-03-14T22:27:37.233Z,97.71
2023-03-14T22:29:49.855Z,97.91
2023-03-14T22:32:02.421Z,98.18
2023-03-14T22:34:15.063Z,97.81
2023-03-14T22:36:27.658Z,98.22
2023-03-14T22:38:40.232Z,97.57
2023-03-14T22:40:52.978Z,98.37
2023-03-14T22:43:05.601Z,98.08
2023-03-14T22:45:18.206Z,97.95
2023-03-14T22:47:30.909Z,97.78
2023-03-14T22:49:43.537Z,97.88
2023-03-14T22:51:56.136Z,97.84
2023-03-14T22:54:09.175Z,97.91
2023-03-14T22:56:21.849Z,98.09
2023-03-14T22:58:35.582Z,98.30
2023-03-14T23:00:48.169Z,97.85
2023-03-14T23:03:01.033Z,97.96
2023-03-14T23:05:13.999Z,97.93
2023-03-14T23:07:26.565Z,97.76
2023-03-14T23:09:39.913Z,98.03
2023-03-14T23:11:52.505Z,98.04
2023-03-14T23:14:05.142Z,97.62
2023-03-14T23:16:19.855Z,97.43
2023-03-14T23:18:34.678Z,97.71
2023-03-14T23:20:48.374Z,97.55
2023-03-14T23:23:00.983Z,97.35
2023-03-14T23:25:13.545Z,97.37
2023-03-14T23:27:26.255Z,97.43
2023-03-14T23:29:38.856Z,97.31
2023-03-14T23:31:51.434Z,97.36
2023-03-14T23:34:03.959Z,97.06
2023-03-14T23:36:18.396Z,97.11
2023-03-14T23:38:32.597Z,97.15
2023-03-14T23:40:45.267Z,96.98
2023-03-14T23:42:57.846Z,96.68
2023-03-14T23:45:16.214Z,96.69
2023-03-14T23:47:29.263Z,96.81
2023-03-14T23:49:41.907Z,96.61
2023-03-14T23:51:54.535Z,96.39
2023-03-14T23:54:07.051Z,96.47
2023-03-14T23:56:19.776Z,96.44
2023-03-14T23:58:36.079Z,96.34
